createdAt,value
2019-03-15T06:22:26.418Z,5.62
2019-03-15T06:25:26.382Z,5.62
2019-03-15T06:26:26.341Z,5.62
2019-03-15T06:29:26.328Z,5.62
2019-03-15T06:30:26.308Z,5.62
2019-03-15T06:32:26.297Z,5.62
2019-03-15T06:35:26.243Z,5.62
2019-03-15T06:37:26.272Z,5.62
2019-03-15T06:38:26.209Z,5.62
2019-03-15T06:39:26.207Z,5.62
2019-03-15T06:40:26.238Z,5.62
2019-03-15T06:41:26.198Z,5.62
2019-03-15T06:43:26.193Z,5.62
2019-03-15T06:44:27.192Z,5.62
2019-03-15T06:45:26.154Z,5.62
2019-03-15T06:46:26.139Z,5.62
2019-03-15T06:47:26.161Z,5.62
2019-03-15T06:48:26.162Z,5.62
2019-03-15T06:49:26.142Z,5.62
2019-03-15T06:50:26.130Z,5.62
2019-03-15T06:51:26.101Z,5.62
2019-03-15T06:52:26.058Z,5.62
2019-03-15T06:53:26.434Z,5.62
2019-03-15T06:54:26.107Z,5.62
2019-03-15T06:55:26.094Z,5.62
2019-03-15T06:56:26.018Z,5.62
2019-03-15T06:57:26.000Z,5.62
2019-03-15T06:58:26.004Z,5.62
2019-03-15T06:59:25.987Z,5.62
2019-03-15T07:00:25.979Z,5.62
2019-03-15T07:01:26.043Z,5.62
2019-03-15T07:02:26.015Z,5.62
2019-03-15T07:03:26.023Z,5.62
2019-03-15T07:04:25.935Z,5.62
2019-03-15T07:05:25.912Z,5.62
2019-03-15T07:06:25.905Z,5.62
2019-03-15T07:07:25.921Z,5.62
2019-03-15T07:08:25.882Z,5.62
2019-03-15T07:09:26.053Z,5.62
2019-03-15T07:10:25.883Z,5.62
2019-03-15T07:11:25.857Z,5.62
2019-03-15T07:12:25.901Z,5.62
2019-03-15T07:13:25.842Z,5.62
2019-03-15T07:14:25.825Z,11.25
2019-03-15T07:15:25.808Z,11.25
2019-03-15T07:16:25.798Z,11.25
2019-03-15T07:17:25.790Z,11.25
2019-03-15T07:18:25.805Z,11.25
2019-03-15T07:19:30.230Z,11.25
2019-03-15T07:20:25.750Z,11.25
2019-03-15T07:21:25.730Z,11.25
2019-03-15T07:22:25.793Z,11.25
2019-03-15T07:23:25.758Z,11.25
2019-03-15T07:24:25.880Z,11.25
2019-03-15T07:25:25.787Z,11.25
2019-03-15T07:26:25.692Z,11.25
2019-03-15T07:27:25.690Z,11.25
2019-03-15T07:28:25.658Z,11.25
2019-03-15T07:29:25.652Z,11.25
2019-03-15T07:30:25.646Z,11.25
2019-03-15T07:31:25.636Z,11.25
2019-03-15T07:32:25.602Z,11.25
2019-03-15T07:33:25.594Z,11.25
2019-03-15T07:34:25.596Z,11.25
2019-03-15T07:35:25.606Z,11.25
2019-03-15T07:36:25.873Z,11.25
2019-03-15T07:37:25.552Z,16.87
2019-03-15T07:38:25.559Z,16.87
2019-03-15T07:39:26.725Z,11.25
2019-03-15T07:40:25.563Z,11.25
2019-03-15T07:41:25.675Z,16.87
2019-03-15T07:42:25.503Z,11.25
2019-03-15T07:43:25.507Z,11.25
2019-03-15T07:44:25.547Z,11.25
2019-03-15T07:45:25.479Z,11.25
2019-03-15T07:46:25.486Z,11.25
2019-03-15T07:47:25.449Z,11.25
2019-03-15T07:48:26.880Z,16.87
2019-03-15T07:49:25.434Z,11.25
2019-03-15T07:50:25.410Z,16.87
2019-03-15T07:51:25.401Z,16.87
2019-03-15T07:52:25.425Z,16.87
2019-03-15T07:53:25.394Z,22.50
2019-03-15T07:54:37.369Z,22.50
2019-03-15T07:55:47.760Z,22.50
2019-03-15T07:56:49.300Z,16.87
2019-03-15T07:57:47.658Z,16.87
2019-03-15T07:58:47.636Z,22.50
2019-03-15T07:59:47.622Z,22.50
2019-03-15T08:00:47.601Z,22.50
2019-03-15T08:01:47.639Z,22.50
2019-03-15T08:02:47.556Z,22.50
2019-03-15T08:03:47.589Z,28.12
2019-03-15T08:04:47.520Z,28.12
2019-03-15T08:05:47.526Z,28.12
2019-03-15T08:06:47.559Z,28.12
2019-03-15T08:07:47.505Z,28.12
2019-03-15T08:08:47.707Z,28.12
2019-03-15T08:09:50.810Z,28.12
2019-03-15T08:10:47.456Z,28.12
2019-03-15T08:11:47.518Z,22.50
2019-03-15T08:12:49.552Z,22.50
2019-03-15T08:13:47.417Z,28.12
2019-03-15T08:14:47.410Z,28.12
2019-03-15T08:15:47.417Z,28.12
2019-03-15T08:16:47.396Z,28.12
2019-03-15T08:17:47.429Z,33.75
2019-03-15T08:18:47.377Z,33.75
2019-03-15T08:19:47.354Z,39.37
2019-03-15T08:20:47.343Z,39.37
2019-03-15T08:21:47.380Z,39.37
2019-03-15T08:22:47.343Z,33.75
2019-03-15T08:23:47.328Z,33.75
2019-03-15T08:24:51.851Z,33.75
2019-03-15T08:25:50.272Z,33.75
2019-03-15T08:26:47.278Z,33.75
2019-03-15T08:27:47.262Z,33.75
2019-03-15T08:28:47.295Z,39.37
2019-03-15T08:29:47.262Z,39.37
2019-03-15T08:30:47.407Z,39.37
2019-03-15T08:31:47.367Z,39.37
2019-03-15T08:32:47.229Z,33.75
2019-03-15T08:33:47.252Z,33.75
2019-03-15T08:34:47.202Z,39.37
2019-03-15T08:35:47.211Z,39.37
2019-03-15T08:36:47.163Z,33.75
2019-03-15T08:37:47.154Z,39.37
2019-03-15T08:38:48.081Z,39.37
2019-03-15T08:39:47.137Z,39.37
2019-03-15T08:40:47.153Z,39.37
2019-03-15T08:41:47.159Z,39.37
2019-03-15T08:42:47.777Z,45.00
2019-03-15T08:43:47.132Z,50.62
2019-03-15T08:44:47.072Z,50.62
2019-03-15T08:45:47.129Z,50.62
2019-03-15T08:46:47.046Z,50.62
2019-03-15T08:47:47.063Z,50.62
2019-03-15T08:48:47.062Z,56.25
2019-03-15T08:49:47.018Z,56.25
2019-03-15T08:50:47.019Z,50.62
2019-03-15T08:51:47.030Z,61.87
2019-03-15T08:52:46.995Z,61.87
2019-03-15T08:53:46.987Z,61.87
2019-03-15T08:54:46.985Z,56.25
2019-03-15T08:55:46.961Z,50.62
2019-03-15T08:56:46.943Z,50.62
2019-03-15T08:57:46.934Z,45.00
2019-03-15T08:58:46.930Z,45.00
2019-03-15T08:59:54.153Z,45.00
2019-03-15T09:01:18.714Z,39.37
2019-03-15T09:02:18.683Z,39.37
2019-03-15T09:03:28.046Z,33.75
2019-03-15T09:04:40.628Z,45.00
2019-03-15T09:05:40.625Z,39.37
2019-03-15T09:06:41.189Z,33.75
2019-03-15T09:07:40.647Z,39.37
2019-03-15T09:08:40.589Z,39.37
2019-03-15T09:09:40.576Z,39.37
2019-03-15T09:10:40.554Z,39.37
2019-03-15T09:11:40.528Z,39.37
2019-03-15T09:12:40.707Z,39.37
2019-03-15T09:13:40.511Z,39.37
2019-03-15T09:14:40.713Z,39.37
2019-03-15T09:32:04.808Z,45.00
2019-03-15T09:33:20.389Z,45.00
2019-03-15T09:34:20.409Z,45.00
2019-03-15T09:35:20.380Z,39.37
2019-03-15T09:36:20.396Z,39.37
2019-03-15T09:37:20.361Z,39.37
2019-03-15T09:38:20.333Z,45.00
2019-03-15T09:39:20.317Z,50.62
2019-03-15T09:40:20.307Z,50.62
2019-03-15T09:41:31.091Z,50.62
2019-03-15T09:42:42.415Z,56.25
2019-03-15T09:43:45.192Z,56.25
2019-03-15T09:44:42.385Z,50.62
2019-03-15T09:45:42.392Z,56.25
2019-03-15T09:46:42.371Z,56.25
2019-03-15T09:47:42.355Z,61.87
2019-03-15T09:48:43.820Z,61.87
2019-03-15T09:49:42.332Z,67.50
2019-03-15T09:50:51.157Z,67.50
2019-03-15T09:52:04.436Z,73.12
2019-03-15T09:53:06.005Z,73.12
2019-03-15T09:54:04.435Z,73.12
2019-03-15T09:55:04.406Z,73.12
2019-03-15T09:56:04.389Z,78.75
2019-03-15T09:57:04.455Z,78.75
2019-03-15T09:58:04.364Z,73.12
2019-03-15T09:59:04.359Z,73.12
2019-03-15T10:00:04.352Z,78.75
2019-03-15T10:01:04.630Z,78.75
2019-03-15T10:02:07.596Z,73.12
2019-03-15T10:03:04.347Z,73.12
2019-03-15T10:04:04.314Z,73.12
2019-03-15T10:05:10.809Z,67.50
2019-03-15T10:06:26.970Z,67.50
2019-03-15T10:07:37.757Z,73.12
2019-03-15T10:08:48.601Z,78.75
2019-03-15T10:09:48.600Z,67.50
2019-03-15T10:10:49.377Z,67.50
2019-03-15T10:11:48.578Z,67.50
2019-03-15T10:12:48.576Z,61.87
2019-03-15T10:13:48.624Z,56.25
2019-03-15T10:14:48.557Z,61.87
2019-03-15T10:15:48.708Z,50.62
2019-03-15T10:16:48.516Z,50.62
2019-03-15T10:17:48.512Z,56.25
2019-03-15T10:18:50.511Z,61.87
2019-03-15T10:19:48.476Z,61.87
2019-03-15T10:20:48.466Z,73.12
2019-03-15T10:21:48.459Z,67.50
2019-03-15T10:23:04.746Z,67.50
2019-03-15T10:24:10.524Z,73.12
2019-03-15T10:25:10.495Z,78.75
2019-03-15T10:26:10.493Z,78.75
2019-03-15T10:27:10.484Z,78.75
2019-03-15T10:28:10.478Z,84.37
2019-03-15T10:29:15.671Z,84.37
2019-03-15T10:30:36.455Z,78.75
2019-03-15T10:31:36.442Z,73.12
2019-03-15T10:32:36.422Z,78.75
2019-03-15T10:33:49.616Z,73.12
2019-03-15T10:34:58.428Z,67.50
2019-03-15T10:35:58.431Z,67.50
2019-03-15T10:36:58.397Z,56.25
2019-03-15T10:37:58.389Z,61.87
2019-03-15T10:38:58.388Z,61.87
2019-03-15T10:39:58.386Z,67.50
2019-03-15T10:41:01.141Z,67.50
2019-03-15T10:41:58.354Z,61.87
2019-03-15T10:42:58.426Z,56.25
2019-03-15T10:43:58.339Z,61.87
2019-03-15T10:44:58.435Z,61.87
2019-03-15T10:45:58.297Z,61.87
2019-03-15T10:46:58.587Z,56.25
2019-03-15T10:47:58.273Z,56.25
2019-03-15T10:48:58.279Z,56.25
2019-03-15T10:49:59.405Z,56.25
2019-03-15T10:50:58.260Z,61.87
2019-03-15T10:51:58.246Z,61.87
2019-03-15T10:52:58.239Z,50.62
2019-03-15T10:53:58.223Z,45.00
2019-03-15T10:54:58.200Z,50.62
2019-03-15T10:56:00.464Z,56.25
2019-03-15T10:56:58.173Z,61.87
2019-03-15T10:57:58.168Z,67.50
2019-03-15T10:58:58.192Z,84.37
2019-03-15T10:59:58.172Z,78.75
2019-03-15T11:00:58.148Z,84.37
2019-03-15T11:01:58.127Z,67.50
2019-03-15T11:02:58.101Z,84.37
2019-03-15T11:03:58.105Z,84.37
2019-03-15T11:04:58.139Z,78.75
2019-03-15T11:05:58.064Z,78.75
2019-03-15T11:06:58.100Z,90.00
2019-03-15T11:07:58.048Z,84.37
2019-03-15T11:08:58.035Z,84.37
2019-03-15T11:09:58.048Z,101.25
2019-03-15T11:10:58.008Z,112.50
2019-03-15T11:11:58.010Z,101.25
2019-03-15T11:12:58.057Z,90.00
2019-03-15T11:13:57.997Z,90.00
2019-03-15T11:14:57.968Z,84.37
2019-03-15T11:15:57.961Z,73.12
2019-03-15T11:16:57.968Z,95.62
2019-03-15T11:17:57.943Z,78.75
2019-03-15T11:18:57.924Z,84.37
2019-03-15T11:19:57.907Z,78.75
2019-03-15T11:20:57.915Z,78.75
2019-03-15T11:21:57.904Z,84.37
2019-03-15T11:22:57.885Z,67.50
2019-03-15T11:23:57.875Z,67.50
2019-03-15T11:24:57.865Z,78.75
2019-03-15T11:25:57.858Z,78.75
2019-03-15T11:26:57.852Z,67.50
2019-03-15T11:27:57.822Z,73.12
2019-03-15T11:28:57.801Z,73.12
2019-03-15T11:29:57.823Z,73.12
2019-03-15T11:31:00.642Z,61.87
2019-03-15T11:31:57.788Z,56.25
2019-03-15T11:32:57.765Z,67.50
2019-03-15T11:33:57.776Z,56.25
2019-03-15T11:34:57.743Z,50.62
2019-03-15T11:35:58.756Z,56.25
2019-03-15T11:36:58.754Z,50.62
2019-03-15T11:37:57.704Z,61.87
2019-03-15T11:38:57.743Z,50.62
2019-03-15T11:39:57.713Z,56.25
2019-03-15T11:40:57.678Z,45.00
2019-03-15T11:41:57.658Z,56.25
2019-03-15T11:42:57.650Z,50.62
2019-03-15T11:43:57.656Z,67.50
2019-03-15T11:44:57.626Z,67.50
2019-03-15T11:45:57.713Z,67.50
2019-03-15T11:46:57.623Z,56.25
2019-03-15T11:48:04.572Z,45.00
2019-03-15T11:49:23.404Z,56.25
2019-03-15T11:50:23.390Z,67.50
2019-03-15T11:51:23.373Z,73.12
2019-03-15T11:52:23.359Z,61.87
2019-03-15T11:53:23.355Z,84.37
2019-03-15T11:54:23.347Z,101.25
2019-03-15T11:55:23.340Z,78.75
2019-03-15T11:56:27.117Z,101.25
2019-03-15T11:57:23.303Z,95.62
2019-03-15T11:58:23.295Z,78.75
2019-03-15T11:59:23.293Z,90.00
2019-03-15T12:00:23.291Z,95.62
2019-03-15T12:01:23.279Z,95.62
2019-03-15T12:02:23.329Z,106.87
2019-03-15T12:03:23.240Z,112.50
2019-03-15T12:04:23.238Z,95.62
2019-03-15T12:05:23.218Z,95.62
2019-03-15T12:06:23.218Z,101.25
2019-03-15T12:07:23.195Z,106.87
2019-03-15T12:08:23.201Z,101.25
2019-03-15T12:09:23.197Z,106.87
2019-03-15T12:10:23.159Z,78.75
2019-03-15T12:11:23.149Z,61.87
2019-03-15T12:12:23.160Z,61.87
2019-03-15T12:13:23.124Z,61.87
2019-03-15T12:14:23.124Z,50.62
2019-03-15T12:15:23.101Z,39.37
2019-03-15T12:16:23.088Z,45.00
2019-03-15T12:17:23.108Z,39.37
2019-03-15T12:18:23.099Z,33.75
2019-03-15T12:19:23.062Z,45.00
2019-03-15T12:20:23.054Z,45.00
2019-03-15T12:21:23.132Z,45.00
2019-03-15T12:22:23.085Z,45.00
2019-03-15T12:23:23.029Z,50.62
2019-03-15T12:24:22.992Z,56.25
2019-03-15T12:25:22.993Z,61.87
2019-03-15T12:26:22.981Z,56.25
2019-03-15T12:27:23.006Z,61.87
2019-03-15T12:28:22.968Z,56.25
2019-03-15T12:29:22.982Z,56.25
2019-03-15T12:30:22.946Z,56.25
2019-03-15T12:31:22.926Z,50.62
2019-03-15T12:32:23.876Z,45.00
2019-03-15T12:33:45.322Z,39.37
2019-03-15T12:34:45.322Z,50.62
2019-03-15T12:35:45.308Z,67.50
2019-03-15T12:36:45.338Z,61.87
2019-03-15T12:37:45.280Z,90.00
2019-03-15T12:38:45.296Z,78.75
2019-03-15T12:39:45.260Z,61.87
2019-03-15T12:40:45.242Z,56.25
2019-03-15T12:41:45.233Z,50.62
2019-03-15T12:42:45.216Z,61.87
2019-03-15T12:43:45.209Z,50.62
2019-03-15T12:44:45.214Z,39.37
2019-03-15T12:45:45.206Z,45.00
2019-03-15T12:46:45.187Z,39.37
2019-03-15T12:47:45.197Z,50.62
2019-03-15T12:48:45.175Z,50.62
2019-03-15T12:49:45.159Z,39.37
2019-03-15T12:50:45.137Z,50.62
2019-03-15T12:51:45.204Z,45.00
2019-03-15T12:52:48.007Z,56.25
2019-03-15T12:53:45.104Z,50.62
2019-03-15T12:54:45.093Z,78.75
2019-03-15T12:55:45.074Z,67.50
2019-03-15T12:56:53.743Z,73.12
2019-03-15T12:58:07.533Z,73.12
2019-03-15T12:59:06.602Z,95.62
2019-03-15T13:00:06.511Z,101.25
2019-03-15T13:01:06.540Z,95.62
2019-03-15T13:02:06.492Z,84.37
2019-03-15T13:03:06.476Z,78.75
2019-03-15T13:04:06.470Z,67.50
2019-03-15T13:05:06.460Z,67.50
2019-03-15T13:06:06.456Z,45.00
2019-03-15T13:07:06.614Z,39.37
2019-03-15T13:08:06.415Z,33.75
2019-03-15T13:09:06.414Z,28.12
2019-03-15T13:10:06.397Z,28.12
2019-03-15T13:11:06.383Z,28.12
2019-03-15T13:12:06.395Z,28.12
2019-03-15T13:13:06.366Z,28.12
2019-03-15T13:14:06.353Z,39.37
2019-03-15T13:15:06.347Z,50.62
2019-03-15T13:16:06.342Z,45.00
2019-03-15T13:17:06.325Z,50.62
2019-03-15T13:18:06.310Z,50.62
2019-03-15T13:19:06.314Z,50.62
2019-03-15T13:20:06.290Z,50.62
2019-03-15T13:21:06.290Z,45.00
2019-03-15T13:22:06.288Z,39.37
2019-03-15T13:23:06.281Z,50.62
2019-03-15T13:24:06.434Z,39.37
2019-03-15T13:25:06.238Z,45.00
2019-03-15T13:26:06.219Z,45.00
2019-03-15T13:27:07.645Z,61.87
2019-03-15T13:28:06.223Z,73.12
2019-03-15T13:29:06.213Z,61.87
2019-03-15T13:30:06.183Z,50.62
2019-03-15T13:31:06.172Z,56.25
2019-03-15T13:32:06.144Z,39.37
2019-03-15T13:33:19.180Z,33.75
2019-03-15T13:34:28.420Z,28.12
2019-03-15T13:35:28.391Z,22.50
2019-03-15T13:36:28.387Z,33.75
2019-03-15T13:37:28.372Z,39.37
2019-03-15T13:38:28.544Z,28.12
2019-03-15T13:39:28.346Z,22.50
2019-03-15T13:40:28.342Z,22.50
2019-03-15T13:41:28.340Z,16.87
2019-03-15T13:42:28.317Z,16.87
2019-03-15T13:43:28.303Z,22.50
2019-03-15T13:44:28.295Z,16.87
2019-03-15T13:45:28.305Z,22.50
2019-03-15T13:46:28.263Z,16.87
2019-03-15T13:47:28.260Z,22.50
2019-03-15T13:48:28.248Z,16.87
2019-03-15T13:49:28.225Z,22.50
2019-03-15T13:50:28.243Z,22.50
2019-03-15T13:51:28.223Z,22.50
2019-03-15T13:52:28.255Z,22.50
2019-03-15T13:53:28.284Z,22.50
2019-03-15T13:54:28.265Z,28.12
2019-03-15T13:55:28.164Z,22.50
2019-03-15T13:56:28.158Z,28.12
2019-03-15T13:57:28.160Z,22.50
2019-03-15T13:58:28.135Z,28.12
2019-03-15T13:59:28.161Z,28.12
2019-03-15T14:00:28.156Z,33.75
2019-03-15T14:01:28.124Z,33.75
2019-03-15T14:02:28.093Z,33.75
2019-03-15T14:03:28.089Z,33.75
2019-03-15T14:05:28.080Z,22.50
2019-03-15T14:06:28.063Z,39.37
2019-03-15T14:07:28.033Z,45.00
2019-03-15T14:08:28.029Z,45.00
2019-03-15T14:09:28.007Z,39.37
2019-03-15T14:10:28.117Z,33.75
2019-03-15T14:11:28.009Z,33.75
2019-03-15T14:12:28.022Z,28.12
2019-03-15T14:13:27.961Z,22.50
2019-03-15T14:14:27.952Z,28.12
2019-03-15T14:15:27.942Z,28.12
2019-03-15T14:16:27.955Z,28.12
2019-03-15T14:17:29.172Z,33.75
2019-03-15T14:18:27.903Z,33.75
2019-03-15T14:19:27.899Z,39.37
2019-03-15T14:20:27.921Z,33.75
2019-03-15T14:21:28.162Z,45.00
2019-03-15T14:22:27.913Z,39.37
2019-03-15T14:23:27.910Z,39.37
2019-03-15T14:24:27.845Z,45.00
2019-03-15T14:25:27.899Z,56.25
2019-03-15T14:26:27.826Z,39.37
2019-03-15T14:27:37.355Z,33.75
2019-03-15T14:28:49.472Z,39.37
2019-03-15T14:29:49.462Z,45.00
2019-03-15T14:30:49.450Z,67.50
2019-03-15T14:31:49.438Z,45.00
2019-03-15T14:32:49.425Z,50.62
2019-03-15T14:33:49.408Z,45.00
2019-03-15T14:34:49.416Z,45.00
2019-03-15T14:35:50.043Z,28.12
2019-03-15T14:36:49.647Z,33.75
2019-03-15T14:37:49.484Z,28.12
2019-03-15T14:38:49.671Z,28.12
2019-03-15T14:39:49.581Z,28.12
2019-03-15T14:41:49.319Z,33.75
2019-03-15T14:42:49.325Z,33.75
2019-03-15T14:43:49.316Z,33.75
2019-03-15T14:44:49.299Z,28.12
2019-03-15T14:45:49.415Z,33.75
2019-03-15T14:46:49.277Z,28.12
2019-03-15T14:47:49.273Z,22.50
2019-03-15T14:48:49.263Z,22.50
2019-03-15T14:49:49.234Z,22.50
2019-03-15T14:50:49.263Z,28.12
2019-03-15T14:51:49.222Z,28.12
2019-03-15T14:52:49.201Z,28.12
2019-03-15T14:53:49.188Z,28.12
2019-03-15T14:54:49.210Z,28.12
2019-03-15T14:55:49.173Z,33.75
2019-03-15T14:56:49.159Z,33.75
2019-03-15T14:57:53.531Z,33.75
2019-03-15T14:58:49.193Z,33.75
2019-03-15T14:59:49.157Z,33.75
2019-03-15T15:15:11.949Z,22.50
2019-03-15T15:16:11.832Z,22.50
2019-03-15T15:17:11.839Z,22.50
2019-03-15T15:18:11.975Z,22.50
2019-03-15T15:19:11.923Z,22.50
2019-03-15T15:20:11.886Z,28.12
2019-03-15T15:21:11.772Z,22.50
2019-03-15T15:22:11.767Z,22.50
2019-03-15T15:23:11.815Z,22.50
2019-03-15T15:24:11.758Z,16.87
2019-03-15T15:25:11.741Z,16.87
2019-03-15T15:26:11.721Z,16.87
2019-03-15T15:27:15.462Z,16.87
2019-03-15T15:28:11.697Z,11.25
2019-03-15T15:29:11.684Z,16.87
2019-03-15T15:30:12.302Z,16.87
2019-03-15T15:31:11.664Z,16.87
2019-03-15T15:32:11.673Z,16.87
2019-03-15T15:33:11.637Z,16.87
2019-03-15T15:34:11.651Z,16.87
2019-03-15T15:35:11.624Z,16.87
2019-03-15T15:36:11.602Z,16.87
2019-03-15T15:37:11.593Z,16.87
2019-03-15T15:38:11.631Z,22.50
2019-03-15T15:39:11.635Z,22.50
2019-03-15T15:41:11.567Z,16.87
2019-03-15T15:42:11.548Z,16.87
2019-03-15T15:43:11.525Z,16.87
2019-03-15T15:45:11.528Z,16.87
2019-03-15T15:46:11.522Z,11.25
2019-03-15T15:47:11.481Z,11.25
2019-03-15T15:48:11.493Z,16.87
2019-03-15T15:49:11.457Z,16.87
2019-03-15T15:50:11.452Z,16.87
2019-03-15T15:51:11.492Z,16.87
2019-03-15T15:53:11.454Z,11.25
2019-03-15T15:54:11.402Z,11.25
2019-03-15T15:55:11.389Z,11.25
2019-03-15T15:56:11.404Z,11.25
2019-03-15T16:01:33.608Z,11.25
2019-03-15T16:02:33.490Z,11.25
2019-03-15T16:03:33.508Z,11.25
2019-03-15T16:04:33.459Z,11.25
2019-03-15T16:05:33.446Z,11.25
2019-03-15T16:06:33.449Z,11.25
2019-03-15T16:07:33.435Z,11.25
2019-03-15T16:08:33.508Z,11.25
2019-03-15T16:09:33.399Z,11.25
2019-03-15T16:10:33.395Z,11.25
2019-03-15T16:11:33.403Z,11.25
2019-03-15T16:12:33.374Z,11.25
2019-03-15T16:13:33.351Z,11.25
2019-03-15T16:14:33.426Z,11.25
2019-03-15T16:15:33.328Z,11.25
2019-03-15T16:16:34.087Z,11.25
2019-03-15T16:17:33.326Z,11.25
2019-03-15T16:18:33.406Z,11.25
2019-03-15T16:19:33.469Z,11.25
2019-03-15T16:20:33.271Z,11.25
2019-03-15T16:21:33.281Z,11.25
2019-03-15T16:22:33.258Z,11.25
2019-03-15T16:23:33.251Z,11.25
2019-03-15T16:24:33.262Z,11.25
2019-03-15T16:25:33.218Z,11.25
2019-03-15T16:26:33.207Z,11.25
2019-03-15T16:27:33.197Z,11.25
2019-03-15T16:28:35.963Z,11.25
2019-03-15T16:29:33.194Z,11.25
2019-03-15T16:30:33.198Z,11.25
2019-03-15T16:31:33.153Z,5.62
2019-03-15T16:32:33.178Z,5.62
2019-03-15T16:33:33.140Z,5.62
2019-03-15T16:34:33.171Z,5.62
2019-03-15T16:35:33.105Z,5.62
2019-03-15T16:36:33.098Z,5.62
2019-03-15T16:37:33.105Z,5.62
2019-03-15T16:38:33.092Z,5.62
2019-03-15T16:39:33.060Z,5.62
2019-03-15T16:40:33.062Z,5.62
2019-03-15T16:41:33.039Z,5.62
2019-03-15T16:42:33.036Z,5.62
2019-03-15T16:43:33.016Z,5.62
2019-03-15T16:44:33.014Z,5.62
2019-03-15T16:45:33.030Z,5.62
2019-03-15T16:46:33.005Z,5.62
2019-03-15T16:47:32.970Z,5.62
2019-03-15T16:49:32.952Z,5.62
2019-03-15T16:59:54.567Z,0.00
